sensor_id;sensor_type;location;lat;lon;timestamp;temperature;humidity
47532;DHT22;33273;52.254;7.988;2023-11-22T00:01:29;3.80;93.00
47532;DHT22;33273;52.254;7.988;2023-11-22T00:03:55;3.80;93.20
47532;DHT22;33273;52.254;7.988;2023-11-22T00:06:20;3.80;93.60
47532;DHT22;33273;52.254;7.988;2023-11-22T00:08:47;3.70;94.20
47532;DHT22;33273;52.254;7.988;2023-11-22T00:11:13;3.70;94.80
47532;DHT22;33273;52.254;7.988;2023-11-22T00:13:41;3.70;95.00
47532;DHT22;33273;52.254;7.988;2023-11-22T00:16:07;3.70;95.50
47532;DHT22;33273;52.254;7.988;2023-11-22T00:18:35;3.80;95.70
47532;DHT22;33273;52.254;7.988;2023-11-22T00:21:03;3.80;95.60
47532;DHT22;33273;52.254;7.988;2023-11-22T15:00:05;4.00;50.40
47532;DHT22;33273;52.254;7.988;2023-11-22T15:02:38;4.00;51.60
47532;DHT22;33273;52.254;7.988;2023-11-22T15:05:05;4.00;50.90
47532;DHT22;33273;52.254;7.988;2023-11-22T15:07:35;4.00;49.80
47532;DHT22;33273;52.254;7.988;2023-11-22T15:10:05;3.90;50.50
47532;DHT22;33273;52.254;7.988;2023-11-22T15:12:31;3.90;50.70
47532;DHT22;33273;52.254;7.988;2023-11-22T15:14:58;3.90;50.10
47532;DHT22;33273;52.254;7.988;2023-11-22T15:17:24;3.80;51.70
47532;DHT22;33273;52.254;7.988;2023-11-22T15:19:50;3.80;50.30
47532;DHT22;33273;52.254;7.988;2023-11-22T15:22:16;3.90;51.70
47532;DHT22;33273;52.254;7.988;2023-11-22T15:24:41;3.90;51.50
47532;DHT22;33273;52.254;7.988;2023-11-22T15:27:07;3.80;52.60
47532;DHT22;33273;52.254;7.988;2023-11-22T15:29:33;3.80;52.90
47532;DHT22;33273;52.254;7.988;2023-11-22T15:31:59;3.80;53.30
47532;DHT22;33273;52.254;7.988;2023-11-22T15:34:25;3.80;54.10
47532;DHT22;33273;52.254;7.988;2023-11-22T15:36:51;3.80;52.70
47532;DHT22;33273;52.254;7.988;2023-11-22T15:39:17;3.70;53.30
47532;DHT22;33273;52.254;7.988;2023-11-22T15:41:47;3.70;54.10
47532;DHT22;33273;52.254;7.988;2023-11-22T15:44:14;3.70;52.40
47532;DHT22;33273;52.254;7.988;2023-11-22T15:46:41;3.70;53.40
47532;DHT22;33273;52.254;7.988;2023-11-22T15:49:08;3.70;53.40
47532;DHT22;33273;52.254;7.988;2023-11-22T15:51:34;3.70;53.60
47532;DHT22;33273;52.254;7.988;2023-11-22T15:54:01;3.70;54.30
47532;DHT22;33273;52.254;7.988;2023-11-22T15:56:27;3.70;53.50
47532;DHT22;33273;52.254;7.988;2023-11-22T15:58:53;3.70;55.10
47532;DHT22;33273;52.254;7.988;2023-11-22T16:01:30;3.60;54.70
47532;DHT22;33273;52.254;7.988;2023-11-22T16:03:56;3.60;54.80
47532;DHT22;33273;52.254;7.988;2023-11-22T16:06:22;3.60;55.50
47532;DHT22;33273;52.254;7.988;2023-11-22T16:08:48;3.60;54.70
47532;DHT22;33273;52.254;7.988;2023-11-22T16:11:14;3.70;54.80
47532;DHT22;33273;52.254;7.988;2023-11-22T16:13:40;3.70;56.30
47532;DHT22;33273;52.254;7.988;2023-11-22T16:16:06;3.70;55.00
47532;DHT22;33273;52.254;7.988;2023-11-22T16:18:34;3.70;54.90
47532;DHT22;33273;52.254;7.988;2023-11-22T16:21:01;3.70;55.50
47532;DHT22;33273;52.254;7.988;2023-11-22T16:23:27;3.70;55.00
47532;DHT22;33273;52.254;7.988;2023-11-22T16:25:55;3.70;56.00
47532;DHT22;33273;52.254;7.988;2023-11-22T16:28:21;3.70;55.40
47532;DHT22;33273;52.254;7.988;2023-11-22T16:30:46;3.70;56.50
47532;DHT22;33273;52.254;7.988;2023-11-22T16:33:13;3.70;56.10
47532;DHT22;33273;52.254;7.988;2023-11-22T16:35:39;3.70;55.60
47532;DHT22;33273;52.254;7.988;2023-11-22T16:38:05;3.70;56.40
47532;DHT22;33273;52.254;7.988;2023-11-22T16:40:31;3.70;55.30
47532;DHT22;33273;52.254;7.988;2023-11-22T16:42:58;3.70;55.00
47532;DHT22;33273;52.254;7.988;2023-11-22T16:45:23;3.70;54.40
47532;DHT22;33273;52.254;7.988;2023-11-22T16:47:51;3.70;54.90
47532;DHT22;33273;52.254;7.988;2023-11-22T16:50:20;3.70;54.20
47532;DHT22;33273;52.254;7.988;2023-11-22T16:52:46;3.80;54.80
47532;DHT22;33273;52.254;7.988;2023-11-22T16:55:12;3.70;55.10
47532;DHT22;33273;52.254;7.988;2023-11-22T16:57:44;3.80;55.70
47532;DHT22;33273;52.254;7.988;2023-11-22T17:00:11;3.80;55.80
47532;DHT22;33273;52.254;7.988;2023-11-22T17:02:47;3.80;56.40
47532;DHT22;33273;52.254;7.988;2023-11-22T17:05:20;3.70;56.00
47532;DHT22;33273;52.254;7.988;2023-11-22T17:07:54;3.70;55.50
47532;DHT22;33273;52.254;7.988;2023-11-22T17:10:20;3.70;55.20
47532;DHT22;33273;52.254;7.988;2023-11-22T17:12:49;3.70;55.30
47532;DHT22;33273;52.254;7.988;2023-11-22T17:15:15;3.70;56.10
47532;DHT22;33273;52.254;7.988;2023-11-22T17:17:41;3.60;56.20
47532;DHT22;33273;52.254;7.988;2023-11-22T17:20:10;3.70;56.60
47532;DHT22;33273;52.254;7.988;2023-11-22T17:22:36;3.70;57.10
47532;DHT22;33273;52.254;7.988;2023-11-22T17:25:01;3.70;56.80
47532;DHT22;33273;52.254;7.988;2023-11-22T17:27:39;3.60;57.90
47532;DHT22;33273;52.254;7.988;2023-11-22T17:30:07;3.60;59.00
47532;DHT22;33273;52.254;7.988;2023-11-22T17:32:33;3.50;60.10
47532;DHT22;33273;52.254;7.988;2023-11-22T17:34:59;3.60;59.80
47532;DHT22;33273;52.254;7.988;2023-11-22T17:37:25;3.60;62.30
47532;DHT22;33273;52.254;7.988;2023-11-22T17:39:51;3.60;60.80
47532;DHT22;33273;52.254;7.988;2023-11-22T17:42:18;3.50;62.00
47532;DHT22;33273;52.254;7.988;2023-11-22T17:44:44;3.50;60.60
47532;DHT22;33273;52.254;7.988;2023-11-22T17:47:35;3.60;60.60
47532;DHT22;33273;52.254;7.988;2023-11-22T17:50:04;3.60;62.10
47532;DHT22;33273;52.254;7.988;2023-11-22T17:52:30;3.60;61.00
47532;DHT22;33273;52.254;7.988;2023-11-22T17:54:58;3.50;60.80
47532;DHT22;33273;52.254;7.988;2023-11-22T17:57:23;3.60;60.60
47532;DHT22;33273;52.254;7.988;2023-11-22T17:59:49;3.60;60.60
47532;DHT22;33273;52.254;7.988;2023-11-22T18:02:15;3.60;59.30
47532;DHT22;33273;52.254;7.988;2023-11-22T18:04:41;3.60;59.40
47532;DHT22;33273;52.254;7.988;2023-11-22T18:07:09;3.60;59.30
47532;DHT22;33273;52.254;7.988;2023-11-22T18:09:35;3.60;58.70
47532;DHT22;33273;52.254;7.988;2023-11-22T18:12:00;3.70;58.90
47532;DHT22;33273;52.254;7.988;2023-11-22T18:14:27;3.70;58.70
47532;DHT22;33273;52.254;7.988;2023-11-22T18:16:53;3.70;58.90
47532;DHT22;33273;52.254;7.988;2023-11-22T18:19:19;3.70;59.20
47532;DHT22;33273;52.254;7.988;2023-11-22T18:21:44;3.70;58.60
47532;DHT22;33273;52.254;7.988;2023-11-22T18:24:10;3.70;59.30
47532;DHT22;33273;52.254;7.988;2023-11-22T18:26:36;3.70;59.20
47532;DHT22;33273;52.254;7.988;2023-11-22T18:29:02;3.70;58.70
47532;DHT22;33273;52.254;7.988;2023-11-22T18:31:31;3.70;59.10
47532;DHT22;33273;52.254;7.988;2023-11-22T18:33:57;3.70;59.40
47532;DHT22;33273;52.254;7.988;2023-11-22T18:36:23;3.80;60.10
47532;DHT22;33273;52.254;7.988;2023-11-22T18:38:50;3.80;59.10
47532;DHT22;33273;52.254;7.988;2023-11-22T18:41:20;3.80;58.20
47532;DHT22;33273;52.254;7.988;2023-11-22T18:43:46;3.80;59.00
47532;DHT22;33273;52.254;7.988;2023-11-22T18:46:12;3.80;59.00
47532;DHT22;33273;52.254;7.988;2023-11-22T18:48:38;3.80;59.20
47532;DHT22;33273;52.254;7.988;2023-11-22T18:51:04;3.80;59.20
47532;DHT22;33273;52.254;7.988;2023-11-22T18:53:30;3.80;58.60
47532;DHT22;33273;52.254;7.988;2023-11-22T18:55:58;3.90;59.30
47532;DHT22;33273;52.254;7.988;2023-11-22T18:58:30;3.80;58.80
47532;DHT22;33273;52.254;7.988;2023-11-22T19:00:55;3.90;58.70
47532;DHT22;33273;52.254;7.988;2023-11-22T19:03:22;3.90;59.00
47532;DHT22;33273;52.254;7.988;2023-11-22T19:05:51;4.00;60.20
47532;DHT22;33273;52.254;7.988;2023-11-22T19:08:20;3.90;59.40
47532;DHT22;33273;52.254;7.988;2023-11-22T19:10:45;4.00;59.50
47532;DHT22;33273;52.254;7.988;2023-11-22T19:13:11;3.90;59.50
47532;DHT22;33273;52.254;7.988;2023-11-22T19:15:42;3.90;59.30
47532;DHT22;33273;52.254;7.988;2023-11-22T19:18:09;4.00;60.00
47532;DHT22;33273;52.254;7.988;2023-11-22T19:20:34;4.00;60.10
47532;DHT22;33273;52.254;7.988;2023-11-22T19:23:00;3.90;59.90
47532;DHT22;33273;52.254;7.988;2023-11-22T19:25:26;3.90;59.70
47532;DHT22;33273;52.254;7.988;2023-11-22T19:27:52;4.00;59.80
47532;DHT22;33273;52.254;7.988;2023-11-22T19:30:18;4.00;59.50
47532;DHT22;33273;52.254;7.988;2023-11-22T19:32:44;4.00;59.80
47532;DHT22;33273;52.254;7.988;2023-11-22T19:35:11;4.10;59.20
47532;DHT22;33273;52.254;7.988;2023-11-22T19:37:37;4.10;59.60
47532;DHT22;33273;52.254;7.988;2023-11-22T19:40:03;4.10;60.10
47532;DHT22;33273;52.254;7.988;2023-11-22T19:42:33;4.10;60.00
47532;DHT22;33273;52.254;7.988;2023-11-22T19:45:00;4.20;61.10
47532;DHT22;33273;52.254;7.988;2023-11-22T19:47:26;4.10;59.50
47532;DHT22;33273;52.254;7.988;2023-11-22T19:49:53;4.20;60.00
47532;DHT22;33273;52.254;7.988;2023-11-22T19:52:18;4.20;59.80
47532;DHT22;33273;52.254;7.988;2023-11-22T19:54:44;4.20;59.90
47532;DHT22;33273;52.254;7.988;2023-11-22T19:57:14;4.30;60.10
47532;DHT22;33273;52.254;7.988;2023-11-22T19:59:39;4.20;61.50
47532;DHT22;33273;52.254;7.988;2023-11-22T20:02:05;4.20;60.40
47532;DHT22;33273;52.254;7.988;2023-11-22T20:04:31;4.30;60.90
47532;DHT22;33273;52.254;7.988;2023-11-22T20:06:57;4.30;60.80
47532;DHT22;33273;52.254;7.988;2023-11-22T20:09:23;4.30;61.00
47532;DHT22;33273;52.254;7.988;2023-11-22T20:11:49;4.30;60.80
47532;DHT22;33273;52.254;7.988;2023-11-22T20:14:15;4.30;61.60
47532;DHT22;33273;52.254;7.988;2023-11-22T20:16:41;4.30;61.50
47532;DHT22;33273;52.254;7.988;2023-11-22T20:19:07;4.40;62.10
47532;DHT22;33273;52.254;7.988;2023-11-22T20:21:34;4.40;61.60
47532;DHT22;33273;52.254;7.988;2023-11-22T20:24:08;4.50;61.50
47532;DHT22;33273;52.254;7.988;2023-11-22T20:26:35;4.50;62.00
47532;DHT22;33273;52.254;7.988;2023-11-22T20:29:01;4.50;61.90
47532;DHT22;33273;52.254;7.988;2023-11-22T20:31:26;4.60;61.70
47532;DHT22;33273;52.254;7.988;2023-11-22T20:33:58;4.60;61.20
47532;DHT22;33273;52.254;7.988;2023-11-22T20:36:23;4.70;61.50
47532;DHT22;33273;52.254;7.988;2023-11-22T20:38:49;4.70;61.60
47532;DHT22;33273;52.254;7.988;2023-11-22T20:41:18;4.70;62.50
47532;DHT22;33273;52.254;7.988;2023-11-22T20:43:45;4.70;63.20
47532;DHT22;33273;52.254;7.988;2023-11-22T20:46:11;4.70;63.70
47532;DHT22;33273;52.254;7.988;2023-11-22T20:48:37;4.70;63.70
47532;DHT22;33273;52.254;7.988;2023-11-22T20:51:02;4.70;63.70
47532;DHT22;33273;52.254;7.988;2023-11-22T20:53:28;4.70;64.60
47532;DHT22;33273;52.254;7.988;2023-11-22T20:55:56;4.70;64.70
47532;DHT22;33273;52.254;7.988;2023-11-22T20:58:21;4.80;64.70
47532;DHT22;33273;52.254;7.988;2023-11-22T21:00:47;4.80;64.90
47532;DHT22;33273;52.254;7.988;2023-11-22T21:03:13;4.80;64.50
47532;DHT22;33273;52.254;7.988;2023-11-22T21:05:39;4.80;65.30
47532;DHT22;33273;52.254;7.988;2023-11-22T21:08:05;4.90;64.70
47532;DHT22;33273;52.254;7.988;2023-11-22T21:10:31;4.90;65.20
47532;DHT22;33273;52.254;7.988;2023-11-22T21:12:57;4.90;65.90
47532;DHT22;33273;52.254;7.988;2023-11-22T21:15:24;4.90;65.70
47532;DHT22;33273;52.254;7.988;2023-11-22T21:17:50;4.90;66.60
47532;DHT22;33273;52.254;7.988;2023-11-22T21:20:16;4.90;66.70
47532;DHT22;33273;52.254;7.988;2023-11-22T21:22:43;4.90;66.40
47532;DHT22;33273;52.254;7.988;2023-11-22T21:25:09;4.90;67.20
47532;DHT22;33273;52.254;7.988;2023-11-22T21:27:36;4.90;67.30
47532;DHT22;33273;52.254;7.988;2023-11-22T21:30:03;4.90;68.30
47532;DHT22;33273;52.254;7.988;2023-11-22T21:32:30;4.90;67.90
47532;DHT22;33273;52.254;7.988;2023-11-22T21:35:10;4.90;69.30
47532;DHT22;33273;52.254;7.988;2023-11-22T21:37:39;4.90;68.50
47532;DHT22;33273;52.254;7.988;2023-11-22T21:40:05;4.90;69.80
47532;DHT22;33273;52.254;7.988;2023-11-22T21:42:40;4.90;69.70
47532;DHT22;33273;52.254;7.988;2023-11-22T21:45:06;4.90;71.10
47532;DHT22;33273;52.254;7.988;2023-11-22T21:47:36;4.90;72.20
47532;DHT22;33273;52.254;7.988;2023-11-22T21:50:06;4.90;73.50
47532;DHT22;33273;52.254;7.988;2023-11-22T21:52:33;4.90;73.20
47532;DHT22;33273;52.254;7.988;2023-11-22T21:54:58;4.90;75.20
47532;DHT22;33273;52.254;7.988;2023-11-22T21:57:24;4.90;76.00
47532;DHT22;33273;52.254;7.988;2023-11-22T21:59:50;4.90;78.50
47532;DHT22;33273;52.254;7.988;2023-11-22T22:02:18;4.80;78.70
47532;DHT22;33273;52.254;7.988;2023-11-22T22:04:49;4.80;79.50
47532;DHT22;33273;52.254;7.988;2023-11-22T22:07:15;4.80;80.60
47532;DHT22;33273;52.254;7.988;2023-11-22T22:09:42;4.80;80.70
47532;DHT22;33273;52.254;7.988;2023-11-22T22:12:08;4.70;81.40
47532;DHT22;33273;52.254;7.988;2023-11-22T22:14:34;4.80;81.00
47532;DHT22;33273;52.254;7.988;2023-11-22T22:17:00;4.80;80.90
47532;DHT22;33273;52.254;7.988;2023-11-22T22:19:26;4.90;80.60
47532;DHT22;33273;52.254;7.988;2023-11-22T22:21:51;4.90;80.20
47532;DHT22;33273;52.254;7.988;2023-11-22T22:24:17;4.90;80.20
47532;DHT22;33273;52.254;7.988;2023-11-22T22:26:43;4.90;80.70
47532;DHT22;33273;52.254;7.988;2023-11-22T22:29:09;5.00;79.60
47532;DHT22;33273;52.254;7.988;2023-11-22T22:31:38;5.10;79.70
47532;DHT22;33273;52.254;7.988;2023-11-22T22:34:04;5.00;79.60
